• Join FlightAware (Why Join?)
  • Login
  • US Flag 
12:26AM EDT


 

Airport Tracker/Info


-or-


 

Live Flight TrackerFlight Track Log ✈ SET212 ✈ 07-May-2013 ✈ RJFF / FUK - RJGG / NGO

Flight Track Log - Related Links

Times and Time Zones

All times are in EDT time to prevent confusion due to time zone crossing. See the SET212 flight status page for this flight to view local times or setup timezone preferences in your user account.

Time Position Orientation Groundspeed Altitude Reporting Facility
EDT Latitude Longitude Course Direction KTS MPH feet Rate Location/Type
07:24PM 33.6721 130.8261 75° East  Level Estimated
07:25PM 33.7004 130.9515 75° East  Level Estimated
07:26PM 33.7285 131.0771 75° East  Level Estimated
07:27PM 33.7564 131.2027 75° East  Level Estimated
07:28PM 33.7843 131.3284 75° East  Level Estimated
07:29PM 33.8120 131.4542 75° East  Level Estimated
07:30PM 33.8396 131.5800 75° East  Level Estimated
07:31PM 33.8671 131.7060 75° East  Level Estimated
07:32PM 33.8945 131.8320 75° East  Level Estimated
07:33PM 33.9217 131.9581 75° East  Level Estimated
07:34PM 33.9488 132.0843 75° East  Level Estimated
07:35PM 33.9757 132.2106 76° East  Level Estimated
07:36PM 34.0025 132.3369 76° East  Level Estimated
07:37PM 34.0293 132.4634 76° East  Level Estimated
07:38PM 34.0558 132.5899 76° East  Level Estimated
07:39PM 34.0823 132.7165 76° East  Level Estimated
07:40PM 34.1086 132.8432 76° East  Level Estimated
07:41PM 34.1348 132.9699 76° East  Level Estimated
07:42PM 34.1608 133.0967 76° East  Level Estimated
07:43PM 34.1867 133.2236 76° East  Level Estimated
07:44PM 34.2125 133.3506 76° East  Level Estimated
07:45PM 34.2382 133.4777 76° East  Level Estimated
07:46PM 34.2637 133.6048 76° East  Level Estimated
07:47PM 34.2891 133.7320 76° East  Level Estimated
07:48PM 34.3144 133.8593 76° East  Level Estimated
07:49PM 34.3395 133.9867 77° East  Level Estimated
07:50PM 34.3645 134.1141 77° East  Level Estimated
07:51PM 34.3894 134.2416 77° East  Level Estimated
07:52PM 34.4141 134.3692 77° East  Level Estimated
07:53PM 34.4387 134.4969 77° East  Level Estimated
07:54PM 34.4632 134.6246 77° East  Level Estimated
07:55PM 34.4875 134.7524 77° East  Level Estimated
07:56PM 34.5117 134.8803 77° East  Level Estimated
07:57PM 34.5358 135.0083 77° East  Level Estimated
07:58PM 34.5597 135.1363 77° East  Level Estimated
07:59PM 34.5835 135.2645 77° East  Level Estimated
08:00PM 34.6072 135.3926 77° East  Level Estimated
08:01PM 34.6308 135.5209 77° East  Level Estimated
08:02PM 34.6542 135.6492 77° East  Level Estimated
08:03PM 34.6774 135.7776 78° East  Level Estimated
08:04PM 34.7006 135.9061 78° East  Level Estimated
08:05PM 34.7236 136.0347 78° East  Level Estimated
08:06PM 34.7464 136.1633 78° East  Level Estimated
08:07PM 34.7691 136.2920 78° East  Level Estimated
08:08PM 34.7917 136.4207 78° East  Level Estimated
08:09PM 34.8142 136.5496 78° East  Level Estimated
08:10PM 34.8365 136.6785 78° East  Level Estimated
08:11PM 34.8583 136.8053 78° East  Level Estimated
08:12PM 34.8583 136.8053 331° Northwest  Level Estimated
08:13PM 34.8583 136.8053 331° Northwest  Level Estimated
08:14PM 34.8583 136.8053 331° Northwest  Level Estimated
08:15PM 34.8583 136.8053 331° Northwest  Level Estimated
08:16PM 34.8583 136.8053 331° Northwest  Level Estimated
08:17PM 34.8583 136.8053 331° Northwest  Level Estimated
08:18PM 34.8583 136.8053 331° Northwest  Level Estimated
08:19PM 34.8583 136.8053 331° Northwest  Level Estimated
08:20PM 34.8583 136.8053 331° Northwest  Level Estimated
08:21PM 34.8583 136.8053 331° Northwest  Level Estimated
08:22PM 34.8583 136.8053 331° Northwest  Level Estimated
08:23PM 34.8583 136.8053 331° Northwest  Level Estimated
08:24PM 34.8583 136.8053 331° Northwest  Level Estimated